sensor_id;sensor_type;location;lat;lon;timestamp;temperature;humidity
48912;DHT22;34722;52.108;5.044;2022-09-09T00:50:03;14.60;99.90
48912;DHT22;34722;52.108;5.044;2022-09-09T00:55:45;14.60;99.90
48912;DHT22;34722;52.108;5.044;2022-09-09T00:58:17;14.50;99.90
48912;DHT22;34722;52.108;5.044;2022-09-09T01:00:46;14.50;99.90
48912;DHT22;34722;52.108;5.044;2022-09-09T01:03:47;14.50;99.90
48912;DHT22;34722;52.108;5.044;2022-09-09T01:06:37;14.50;99.90
48912;DHT22;34722;52.108;5.044;2022-09-09T01:09:44;14.50;99.90
48912;DHT22;34722;52.108;5.044;2022-09-09T01:12:15;14.40;99.90
48912;DHT22;34722;52.108;5.044;2022-09-09T01:14:50;14.40;99.90
48912;DHT22;34722;52.108;5.044;2022-09-09T01:17:19;14.40;99.90
48912;DHT22;34722;52.108;5.044;2022-09-09T01:28:08;14.40;99.90
48912;DHT22;34722;52.108;5.044;2022-09-09T01:30:38;14.30;99.90
48912;DHT22;34722;52.108;5.044;2022-09-09T01:33:04;14.30;99.90
48912;DHT22;34722;52.108;5.044;2022-09-09T01:38:05;14.20;99.90
48912;DHT22;34722;52.108;5.044;2022-09-09T01:40:33;14.20;99.90
48912;DHT22;34722;52.108;5.044;2022-09-09T01:42:59;14.30;99.90
48912;DHT22;34722;52.108;5.044;2022-09-09T01:45:25;14.20;99.90
48912;DHT22;34722;52.108;5.044;2022-09-09T01:47:55;14.20;99.90
48912;DHT22;34722;52.108;5.044;2022-09-09T01:50:22;14.20;99.90
48912;DHT22;34722;52.108;5.044;2022-09-09T01:52:52;14.20;99.90
48912;DHT22;34722;52.108;5.044;2022-09-09T01:56:13;14.20;99.90
48912;DHT22;34722;52.108;5.044;2022-09-09T02:03:57;14.10;99.90
48912;DHT22;34722;52.108;5.044;2022-09-09T02:06:27;14.20;99.90
48912;DHT22;34722;52.108;5.044;2022-09-09T02:08:56;14.10;99.90
48912;DHT22;34722;52.108;5.044;2022-09-09T02:11:27;14.20;99.90
48912;DHT22;34722;52.108;5.044;2022-09-09T02:14:01;14.20;99.90
48912;DHT22;34722;52.108;5.044;2022-09-09T02:19:10;14.20;99.90
48912;DHT22;34722;52.108;5.044;2022-09-09T02:21:40;14.20;99.90
48912;DHT22;34722;52.108;5.044;2022-09-09T02:24:08;14.30;99.90
48912;DHT22;34722;52.108;5.044;2022-09-09T02:26:39;14.30;99.90
48912;DHT22;34722;52.108;5.044;2022-09-09T02:29:09;14.30;99.90
48912;DHT22;34722;52.108;5.044;2022-09-09T02:31:37;14.30;99.90
48912;DHT22;34722;52.108;5.044;2022-09-09T02:34:05;14.30;99.90
48912;DHT22;34722;52.108;5.044;2022-09-09T02:36:36;14.30;99.90
48912;DHT22;34722;52.108;5.044;2022-09-09T02:39:07;14.30;99.90
48912;DHT22;34722;52.108;5.044;2022-09-09T02:41:34;14.20;99.90
48912;DHT22;34722;52.108;5.044;2022-09-09T02:44:00;14.20;99.90
48912;DHT22;34722;52.108;5.044;2022-09-09T02:52:07;14.30;99.90
48912;DHT22;34722;52.108;5.044;2022-09-09T02:54:36;14.30;99.90
48912;DHT22;34722;52.108;5.044;2022-09-09T02:57:28;14.40;99.90
48912;DHT22;34722;52.108;5.044;2022-09-09T02:59:57;14.40;99.90
48912;DHT22;34722;52.108;5.044;2022-09-09T03:02:24;14.40;99.90
48912;DHT22;34722;52.108;5.044;2022-09-09T03:04:50;14.40;99.90
48912;DHT22;34722;52.108;5.044;2022-09-09T03:07:18;14.30;99.90
48912;DHT22;34722;52.108;5.044;2022-09-09T03:09:44;14.30;99.90
48912;DHT22;34722;52.108;5.044;2022-09-09T03:12:10;14.30;99.90
48912;DHT22;34722;52.108;5.044;2022-09-09T03:14:37;14.30;99.90
48912;DHT22;34722;52.108;5.044;2022-09-09T03:17:04;14.30;99.90
48912;DHT22;34722;52.108;5.044;2022-09-09T03:19:30;14.30;99.90
48912;DHT22;34722;52.108;5.044;2022-09-09T03:21:57;14.30;99.90
48912;DHT22;34722;52.108;5.044;2022-09-09T03:24:24;14.30;99.90
48912;DHT22;34722;52.108;5.044;2022-09-09T03:26:49;14.20;99.90
48912;DHT22;34722;52.108;5.044;2022-09-09T03:29:16;14.20;99.90
48912;DHT22;34722;52.108;5.044;2022-09-09T03:31:43;14.20;99.90
48912;DHT22;34722;52.108;5.044;2022-09-09T03:34:10;14.20;99.90
48912;DHT22;34722;52.108;5.044;2022-09-09T03:36:35;14.20;99.90
48912;DHT22;34722;52.108;5.044;2022-09-09T03:39:02;14.20;99.90
48912;DHT22;34722;52.108;5.044;2022-09-09T03:41:30;14.20;99.90
48912;DHT22;34722;52.108;5.044;2022-09-09T03:43:56;14.20;99.90
48912;DHT22;34722;52.108;5.044;2022-09-09T03:46:24;14.20;99.90
48912;DHT22;34722;52.108;5.044;2022-09-09T03:48:50;14.20;99.90
48912;DHT22;34722;52.108;5.044;2022-09-09T03:51:17;14.20;99.90
48912;DHT22;34722;52.108;5.044;2022-09-09T03:53:43;14.10;99.90
48912;DHT22;34722;52.108;5.044;2022-09-09T03:56:10;14.10;99.90
48912;DHT22;34722;52.108;5.044;2022-09-09T03:58:37;14.10;99.90
48912;DHT22;34722;52.108;5.044;2022-09-09T04:01:05;14.10;99.90
48912;DHT22;34722;52.108;5.044;2022-09-09T04:03:31;14.00;99.90
48912;DHT22;34722;52.108;5.044;2022-09-09T04:05:59;14.10;99.90
48912;DHT22;34722;52.108;5.044;2022-09-09T04:08:26;14.10;99.90
48912;DHT22;34722;52.108;5.044;2022-09-09T04:10:52;14.10;99.90
48912;DHT22;34722;52.108;5.044;2022-09-09T04:13:18;14.10;99.90
48912;DHT22;34722;52.108;5.044;2022-09-09T04:15:51;14.10;99.90
48912;DHT22;34722;52.108;5.044;2022-09-09T04:18:17;14.10;99.90
48912;DHT22;34722;52.108;5.044;2022-09-09T04:20:49;14.10;99.90
48912;DHT22;34722;52.108;5.044;2022-09-09T04:23:16;14.10;99.90
48912;DHT22;34722;52.108;5.044;2022-09-09T04:25:46;14.20;99.90
48912;DHT22;34722;52.108;5.044;2022-09-09T04:28:13;14.20;99.90
48912;DHT22;34722;52.108;5.044;2022-09-09T04:30:38;14.20;99.90
48912;DHT22;34722;52.108;5.044;2022-09-09T04:33:05;14.20;99.90
48912;DHT22;34722;52.108;5.044;2022-09-09T04:35:32;14.20;99.90
48912;DHT22;34722;52.108;5.044;2022-09-09T04:37:58;14.20;99.90
48912;DHT22;34722;52.108;5.044;2022-09-09T04:40:24;14.10;99.90
48912;DHT22;34722;52.108;5.044;2022-09-09T04:42:50;14.10;99.90
48912;DHT22;34722;52.108;5.044;2022-09-09T04:45:16;14.10;99.90
48912;DHT22;34722;52.108;5.044;2022-09-09T04:47:42;14.20;99.90
48912;DHT22;34722;52.108;5.044;2022-09-09T04:50:08;14.10;99.90
48912;DHT22;34722;52.108;5.044;2022-09-09T04:52:35;14.10;99.90
48912;DHT22;34722;52.108;5.044;2022-09-09T04:55:01;14.10;99.90
48912;DHT22;34722;52.108;5.044;2022-09-09T04:57:27;14.10;99.90
48912;DHT22;34722;52.108;5.044;2022-09-09T04:59:54;14.10;99.90
48912;DHT22;34722;52.108;5.044;2022-09-09T05:02:20;14.10;99.90
48912;DHT22;34722;52.108;5.044;2022-09-09T05:04:45;14.10;99.90
48912;DHT22;34722;52.108;5.044;2022-09-09T05:07:11;14.20;99.90
48912;DHT22;34722;52.108;5.044;2022-09-09T05:09:38;14.20;99.90
48912;DHT22;34722;52.108;5.044;2022-09-09T05:12:04;14.20;99.90
48912;DHT22;34722;52.108;5.044;2022-09-09T05:14:30;14.20;99.90
48912;DHT22;34722;52.108;5.044;2022-09-09T05:16:56;14.20;99.90
48912;DHT22;34722;52.108;5.044;2022-09-09T05:19:21;14.20;99.90
48912;DHT22;34722;52.108;5.044;2022-09-09T05:21:47;14.20;99.90
48912;DHT22;34722;52.108;5.044;2022-09-09T05:24:13;14.20;99.90
48912;DHT22;34722;52.108;5.044;2022-09-09T05:26:39;14.20;99.90
48912;DHT22;34722;52.108;5.044;2022-09-09T05:29:05;14.30;99.90
48912;DHT22;34722;52.108;5.044;2022-09-09T05:31:31;14.20;99.90
48912;DHT22;34722;52.108;5.044;2022-09-09T05:33:58;14.30;99.90
48912;DHT22;34722;52.108;5.044;2022-09-09T05:36:24;14.30;99.90
48912;DHT22;34722;52.108;5.044;2022-09-09T05:38:51;14.40;99.90
48912;DHT22;34722;52.108;5.044;2022-09-09T05:41:19;14.40;99.90
48912;DHT22;34722;52.108;5.044;2022-09-09T05:43:45;14.40;99.90
48912;DHT22;34722;52.108;5.044;2022-09-09T05:46:14;14.40;99.90
48912;DHT22;34722;52.108;5.044;2022-09-09T05:48:45;14.50;99.90
48912;DHT22;34722;52.108;5.044;2022-09-09T05:51:16;14.60;99.90
48912;DHT22;34722;52.108;5.044;2022-09-09T05:53:42;14.60;99.90
48912;DHT22;34722;52.108;5.044;2022-09-09T05:58:37;14.70;99.90
48912;DHT22;34722;52.108;5.044;2022-09-09T06:01:08;14.70;99.90
48912;DHT22;34722;52.108;5.044;2022-09-09T06:03:38;14.80;99.90
48912;DHT22;34722;52.108;5.044;2022-09-09T06:06:06;14.80;99.90
48912;DHT22;34722;52.108;5.044;2022-09-09T06:08:34;14.80;99.90
48912;DHT22;34722;52.108;5.044;2022-09-09T06:11:04;14.80;99.90
48912;DHT22;34722;52.108;5.044;2022-09-09T06:13:31;14.90;99.90
48912;DHT22;34722;52.108;5.044;2022-09-09T06:15:57;15.00;99.90
48912;DHT22;34722;52.108;5.044;2022-09-09T06:18:24;15.10;99.90
48912;DHT22;34722;52.108;5.044;2022-09-09T06:21:00;15.30;99.90
48912;DHT22;34722;52.108;5.044;2022-09-09T06:23:27;15.60;99.90
48912;DHT22;34722;52.108;5.044;2022-09-09T06:26:07;15.80;99.90
48912;DHT22;34722;52.108;5.044;2022-09-09T06:28:34;16.00;99.90
48912;DHT22;34722;52.108;5.044;2022-09-09T06:31:01;16.40;99.90
48912;DHT22;34722;52.108;5.044;2022-09-09T06:33:30;16.50;99.90
48912;DHT22;34722;52.108;5.044;2022-09-09T06:35:55;16.50;99.90
48912;DHT22;34722;52.108;5.044;2022-09-09T06:38:22;16.40;99.90
48912;DHT22;34722;52.108;5.044;2022-09-09T06:40:56;16.20;99.90
48912;DHT22;34722;52.108;5.044;2022-09-09T06:43:24;16.20;99.90
48912;DHT22;34722;52.108;5.044;2022-09-09T06:45:55;16.30;99.90
48912;DHT22;34722;52.108;5.044;2022-09-09T06:48:21;17.40;99.90
48912;DHT22;34722;52.108;5.044;2022-09-09T06:50:47;18.70;59.10
48912;DHT22;34722;52.108;5.044;2022-09-09T06:53:16;20.20;8.30
48912;DHT22;34722;52.108;5.044;2022-09-09T06:55:45;21.10;1.00
48912;DHT22;34722;52.108;5.044;2022-09-09T06:58:10;21.50;1.00
48912;DHT22;34722;52.108;5.044;2022-09-09T07:00:36;21.40;1.00
48912;DHT22;34722;52.108;5.044;2022-09-09T07:03:04;20.40;1.00
48912;DHT22;34722;52.108;5.044;2022-09-09T07:05:31;18.80;5.00
48912;DHT22;34722;52.108;5.044;2022-09-09T07:07:57;18.00;45.10
48912;DHT22;34722;52.108;5.044;2022-09-09T07:10:23;17.50;71.80
48912;DHT22;34722;52.108;5.044;2022-09-09T07:12:52;17.30;91.20
48912;DHT22;34722;52.108;5.044;2022-09-09T07:15:18;17.40;90.10
48912;DHT22;34722;52.108;5.044;2022-09-09T07:17:44;17.40;91.20
48912;DHT22;34722;52.108;5.044;2022-09-09T07:20:10;17.30;92.00
48912;DHT22;34722;52.108;5.044;2022-09-09T07:22:36;17.10;95.40
48912;DHT22;34722;52.108;5.044;2022-09-09T07:25:03;17.00;98.70
48912;DHT22;34722;52.108;5.044;2022-09-09T07:27:29;17.10;98.20
48912;DHT22;34722;52.108;5.044;2022-09-09T07:29:55;17.00;96.20
48912;DHT22;34722;52.108;5.044;2022-09-09T07:32:21;17.00;99.10
48912;DHT22;34722;52.108;5.044;2022-09-09T07:34:46;17.10;97.80
48912;DHT22;34722;52.108;5.044;2022-09-09T07:37:13;17.10;95.60
48912;DHT22;34722;52.108;5.044;2022-09-09T07:39:39;17.20;92.40
48912;DHT22;34722;52.108;5.044;2022-09-09T07:42:05;17.20;90.40
48912;DHT22;34722;52.108;5.044;2022-09-09T07:44:31;17.20;94.80
48912;DHT22;34722;52.108;5.044;2022-09-09T07:47:00;17.20;94.00
48912;DHT22;34722;52.108;5.044;2022-09-09T07:49:26;17.10;91.00
48912;DHT22;34722;52.108;5.044;2022-09-09T07:51:51;16.80;97.50
48912;DHT22;34722;52.108;5.044;2022-09-09T07:54:19;16.70;99.90
48912;DHT22;34722;52.108;5.044;2022-09-09T07:56:46;16.80;99.90
48912;DHT22;34722;52.108;5.044;2022-09-09T07:59:13;16.80;99.90
48912;DHT22;34722;52.108;5.044;2022-09-09T08:01:47;16.80;99.90
48912;DHT22;34722;52.108;5.044;2022-09-09T08:04:16;16.70;99.90
48912;DHT22;34722;52.108;5.044;2022-09-09T08:06:48;16.80;99.90
48912;DHT22;34722;52.108;5.044;2022-09-09T08:09:15;16.90;99.90
48912;DHT22;34722;52.108;5.044;2022-09-09T08:11:42;17.20;96.30
48912;DHT22;34722;52.108;5.044;2022-09-09T08:14:09;17.30;88.90
48912;DHT22;34722;52.108;5.044;2022-09-09T08:16:38;17.60;70.60
48912;DHT22;34722;52.108;5.044;2022-09-09T08:19:05;18.10;55.70
48912;DHT22;34722;52.108;5.044;2022-09-09T08:21:33;18.00;39.20
48912;DHT22;34722;52.108;5.044;2022-09-09T08:24:00;17.70;55.20
48912;DHT22;34722;52.108;5.044;2022-09-09T08:26:33;17.60;60.20
48912;DHT22;34722;52.108;5.044;2022-09-09T08:29:00;17.60;59.50
48912;DHT22;34722;52.108;5.044;2022-09-09T08:31:29;17.60;60.10
48912;DHT22;34722;52.108;5.044;2022-09-09T08:33:56;17.50;57.70
48912;DHT22;34722;52.108;5.044;2022-09-09T08:36:24;17.40;75.00
48912;DHT22;34722;52.108;5.044;2022-09-09T08:38:56;17.40;72.30
48912;DHT22;34722;52.108;5.044;2022-09-09T08:47:11;17.20;80.10
48912;DHT22;34722;52.108;5.044;2022-09-09T08:53:04;17.10;93.30
48912;DHT22;34722;52.108;5.044;2022-09-09T08:55:33;17.10;92.80
48912;DHT22;34722;52.108;5.044;2022-09-09T09:03:45;17.00;92.80
48912;DHT22;34722;52.108;5.044;2022-09-09T09:12:02;17.10;89.60
48912;DHT22;34722;52.108;5.044;2022-09-09T09:14:29;17.00;90.30
48912;DHT22;34722;52.108;5.044;2022-09-09T09:19:21;17.00;97.30
48912;DHT22;34722;52.108;5.044;2022-09-09T09:22:05;17.00;96.10
48912;DHT22;34722;52.108;5.044;2022-09-09T09:27:40;16.90;95.70
48912;DHT22;34722;52.108;5.044;2022-09-09T09:30:19;16.90;95.50
48912;DHT22;34722;52.108;5.044;2022-09-09T09:32:55;16.90;99.90
48912;DHT22;34722;52.108;5.044;2022-09-09T09:35:21;16.80;99.90
48912;DHT22;34722;52.108;5.044;2022-09-09T09:37:47;16.70;99.90
48912;DHT22;34722;52.108;5.044;2022-09-09T09:40:21;16.60;99.90
48912;DHT22;34722;52.108;5.044;2022-09-09T09:45:34;16.60;99.90
48912;DHT22;34722;52.108;5.044;2022-09-09T09:48:01;16.80;99.90
48912;DHT22;34722;52.108;5.044;2022-09-09T09:50:28;17.00;99.90
48912;DHT22;34722;52.108;5.044;2022-09-09T09:53:00;17.10;99.90
48912;DHT22;34722;52.108;5.044;2022-09-09T09:55:29;17.10;99.90
48912;DHT22;34722;52.108;5.044;2022-09-09T09:58:04;17.10;99.90
48912;DHT22;34722;52.108;5.044;2022-09-09T10:00:30;17.30;97.10
48912;DHT22;34722;52.108;5.044;2022-09-09T10:02:56;17.30;92.20
48912;DHT22;34722;52.108;5.044;2022-09-09T10:05:30;17.50;86.30
48912;DHT22;34722;52.108;5.044;2022-09-09T10:08:14;17.60;74.70
48912;DHT22;34722;52.108;5.044;2022-09-09T10:13:48;17.50;99.90
48912;DHT22;34722;52.108;5.044;2022-09-09T10:19:09;16.60;99.90
48912;DHT22;34722;52.108;5.044;2022-09-09T10:40:32;18.00;99.90
48912;DHT22;34722;52.108;5.044;2022-09-09T10:48:53;17.60;99.90
48912;DHT22;34722;52.108;5.044;2022-09-09T10:51:33;17.60;99.90
48912;DHT22;34722;52.108;5.044;2022-09-09T10:54:24;17.70;99.90
48912;DHT22;34722;52.108;5.044;2022-09-09T10:57:03;17.80;99.90
48912;DHT22;34722;52.108;5.044;2022-09-09T10:59:33;18.00;99.90
48912;DHT22;34722;52.108;5.044;2022-09-09T11:04:40;18.40;93.00
48912;DHT22;34722;52.108;5.044;2022-09-09T11:07:10;18.50;95.00
48912;DHT22;34722;52.108;5.044;2022-09-09T11:09:45;18.30;91.20
48912;DHT22;34722;52.108;5.044;2022-09-09T11:12:18;18.10;99.90
48912;DHT22;34722;52.108;5.044;2022-09-09T11:14:46;17.90;99.90
48912;DHT22;34722;52.108;5.044;2022-09-09T11:17:23;17.70;99.90
48912;DHT22;34722;52.108;5.044;2022-09-09T11:19:50;17.60;99.90
48912;DHT22;34722;52.108;5.044;2022-09-09T11:22:37;17.60;99.90
48912;DHT22;34722;52.108;5.044;2022-09-09T11:25:39;17.60;99.90
48912;DHT22;34722;52.108;5.044;2022-09-09T11:35:54;17.00;99.90
48912;DHT22;34722;52.108;5.044;2022-09-09T11:41:05;16.80;99.90
48912;DHT22;34722;52.108;5.044;2022-09-09T11:43:44;16.80;99.90
48912;DHT22;34722;52.108;5.044;2022-09-09T11:46:15;16.70;99.90
48912;DHT22;34722;52.108;5.044;2022-09-09T11:48:45;16.70;99.90
48912;DHT22;34722;52.108;5.044;2022-09-09T11:56:42;17.10;99.90
48912;DHT22;34722;52.108;5.044;2022-09-09T11:59:29;17.10;99.90
48912;DHT22;34722;52.108;5.044;2022-09-09T12:02:29;17.20;99.90
48912;DHT22;34722;52.108;5.044;2022-09-09T12:05:06;17.20;99.90
48912;DHT22;34722;52.108;5.044;2022-09-09T12:07:50;17.30;99.90
48912;DHT22;34722;52.108;5.044;2022-09-09T12:10:23;17.20;99.90
48912;DHT22;34722;52.108;5.044;2022-09-09T12:12:51;17.80;99.90
48912;DHT22;34722;52.108;5.044;2022-09-09T12:17:57;18.70;99.90
48912;DHT22;34722;52.108;5.044;2022-09-09T12:20:40;18.80;99.90
48912;DHT22;34722;52.108;5.044;2022-09-09T12:23:40;18.70;99.90
48912;DHT22;34722;52.108;5.044;2022-09-09T12:31:36;18.20;99.90
48912;DHT22;34722;52.108;5.044;2022-09-09T12:40:05;19.10;92.40
48912;DHT22;34722;52.108;5.044;2022-09-09T12:42:31;19.00;82.00
48912;DHT22;34722;52.108;5.044;2022-09-09T12:45:03;19.00;75.60
48912;DHT22;34722;52.108;5.044;2022-09-09T12:47:56;18.70;74.50
48912;DHT22;34722;52.108;5.044;2022-09-09T12:50:26;18.30;93.70
48912;DHT22;34722;52.108;5.044;2022-09-09T12:52:58;18.20;94.90
48912;DHT22;34722;52.108;5.044;2022-09-09T12:55:29;18.40;97.20
48912;DHT22;34722;52.108;5.044;2022-09-09T12:57:56;18.40;96.10
48912;DHT22;34722;52.108;5.044;2022-09-09T13:00:25;18.40;93.70
48912;DHT22;34722;52.108;5.044;2022-09-09T13:03:00;18.30;92.70
48912;DHT22;34722;52.108;5.044;2022-09-09T13:05:37;18.10;99.70
48912;DHT22;34722;52.108;5.044;2022-09-09T13:08:09;18.00;99.90
48912;DHT22;34722;52.108;5.044;2022-09-09T13:10:54;18.10;99.90
48912;DHT22;34722;52.108;5.044;2022-09-09T13:13:37;18.20;99.90
48912;DHT22;34722;52.108;5.044;2022-09-09T13:16:05;18.30;92.10
48912;DHT22;34722;52.108;5.044;2022-09-09T13:18:40;18.60;78.20
48912;DHT22;34722;52.108;5.044;2022-09-09T13:21:06;18.80;82.00
48912;DHT22;34722;52.108;5.044;2022-09-09T13:23:34;18.90;70.60
48912;DHT22;34722;52.108;5.044;2022-09-09T13:26:26;19.30;54.90
48912;DHT22;34722;52.108;5.044;2022-09-09T13:28:52;19.30;52.10
48912;DHT22;34722;52.108;5.044;2022-09-09T13:31:33;19.30;56.00
48912;DHT22;34722;52.108;5.044;2022-09-09T13:34:33;19.20;50.80
48912;DHT22;34722;52.108;5.044;2022-09-09T13:37:03;19.00;54.00
48912;DHT22;34722;52.108;5.044;2022-09-09T13:39:33;18.80;65.50
48912;DHT22;34722;52.108;5.044;2022-09-09T13:42:00;18.70;74.80
48912;DHT22;34722;52.108;5.044;2022-09-09T13:44:42;18.60;92.30
48912;DHT22;34722;52.108;5.044;2022-09-09T13:49:53;18.30;99.90
48912;DHT22;34722;52.108;5.044;2022-09-09T13:52:19;18.00;99.90
48912;DHT22;34722;52.108;5.044;2022-09-09T13:54:49;17.90;99.90
48912;DHT22;34722;52.108;5.044;2022-09-09T13:57:25;17.70;99.90
48912;DHT22;34722;52.108;5.044;2022-09-09T13:59:52;17.60;99.90
48912;DHT22;34722;52.108;5.044;2022-09-09T14:02:20;17.40;99.90
48912;DHT22;34722;52.108;5.044;2022-09-09T14:04:48;17.20;99.90
48912;DHT22;34722;52.108;5.044;2022-09-09T14:07:17;17.10;99.90
48912;DHT22;34722;52.108;5.044;2022-09-09T14:09:43;17.00;99.90
48912;DHT22;34722;52.108;5.044;2022-09-09T14:12:10;17.00;99.90
48912;DHT22;34722;52.108;5.044;2022-09-09T14:14:37;16.90;99.90
48912;DHT22;34722;52.108;5.044;2022-09-09T14:17:04;16.90;99.90
48912;DHT22;34722;52.108;5.044;2022-09-09T14:19:33;17.00;99.90
48912;DHT22;34722;52.108;5.044;2022-09-09T14:22:00;17.20;99.90
48912;DHT22;34722;52.108;5.044;2022-09-09T14:24:29;17.50;99.90
48912;DHT22;34722;52.108;5.044;2022-09-09T14:26:58;17.70;99.90
48912;DHT22;34722;52.108;5.044;2022-09-09T14:29:24;17.90;99.90
48912;DHT22;34722;52.108;5.044;2022-09-09T14:31:51;18.30;99.90
48912;DHT22;34722;52.108;5.044;2022-09-09T14:34:17;18.80;99.90
48912;DHT22;34722;52.108;5.044;2022-09-09T14:36:43;19.10;99.90
48912;DHT22;34722;52.108;5.044;2022-09-09T20:18:45;15.90;99.90
48912;DHT22;34722;52.108;5.044;2022-09-09T20:21:21;15.90;99.90
48912;DHT22;34722;52.108;5.044;2022-09-09T20:23:48;16.00;99.90
48912;DHT22;34722;52.108;5.044;2022-09-09T20:26:17;16.00;99.90
48912;DHT22;34722;52.108;5.044;2022-09-09T20:28:49;16.00;99.90
48912;DHT22;34722;52.108;5.044;2022-09-09T20:31:21;16.00;99.90
48912;DHT22;34722;52.108;5.044;2022-09-09T20:33:48;16.00;99.90
48912;DHT22;34722;52.108;5.044;2022-09-09T20:36:26;16.00;99.90
48912;DHT22;34722;52.108;5.044;2022-09-09T20:39:08;16.00;99.90
48912;DHT22;34722;52.108;5.044;2022-09-09T20:41:40;16.00;99.90
48912;DHT22;34722;52.108;5.044;2022-09-09T20:44:11;16.00;99.90
48912;DHT22;34722;52.108;5.044;2022-09-09T20:46:44;16.00;99.90
48912;DHT22;34722;52.108;5.044;2022-09-09T20:49:17;16.00;99.90
48912;DHT22;34722;52.108;5.044;2022-09-09T20:51:44;16.00;99.90
48912;DHT22;34722;52.108;5.044;2022-09-09T20:54:19;16.00;99.90
48912;DHT22;34722;52.108;5.044;2022-09-09T20:56:53;16.10;99.90
48912;DHT22;34722;52.108;5.044;2022-09-09T20:59:22;16.10;99.90
48912;DHT22;34722;52.108;5.044;2022-09-09T21:01:49;16.00;99.90
48912;DHT22;34722;52.108;5.044;2022-09-09T21:04:19;16.00;99.90
48912;DHT22;34722;52.108;5.044;2022-09-09T21:06:48;15.90;99.90
48912;DHT22;34722;52.108;5.044;2022-09-09T21:09:16;15.80;99.90
48912;DHT22;34722;52.108;5.044;2022-09-09T21:11:42;15.80;99.90
48912;DHT22;34722;52.108;5.044;2022-09-09T21:14:09;15.80;99.90
48912;DHT22;34722;52.108;5.044;2022-09-09T21:16:35;15.80;99.90
48912;DHT22;34722;52.108;5.044;2022-09-09T21:19:01;15.80;99.90
48912;DHT22;34722;52.108;5.044;2022-09-09T21:21:27;15.80;99.90
48912;DHT22;34722;52.108;5.044;2022-09-09T21:23:57;15.80;99.90
48912;DHT22;34722;52.108;5.044;2022-09-09T21:26:24;15.80;99.90
48912;DHT22;34722;52.108;5.044;2022-09-09T21:28:49;15.80;99.90
48912;DHT22;34722;52.108;5.044;2022-09-09T21:31:17;15.80;99.90
48912;DHT22;34722;52.108;5.044;2022-09-09T21:33:46;15.70;99.90
48912;DHT22;34722;52.108;5.044;2022-09-09T21:36:15;15.70;99.90
48912;DHT22;34722;52.108;5.044;2022-09-09T21:38:42;15.70;99.90
48912;DHT22;34722;52.108;5.044;2022-09-09T21:41:13;15.70;99.90
48912;DHT22;34722;52.108;5.044;2022-09-09T21:43:41;15.70;99.90
48912;DHT22;34722;52.108;5.044;2022-09-09T21:46:09;15.70;99.90
48912;DHT22;34722;52.108;5.044;2022-09-09T21:48:35;15.70;99.90
48912;DHT22;34722;52.108;5.044;2022-09-09T21:51:04;15.70;99.90
48912;DHT22;34722;52.108;5.044;2022-09-09T21:53:33;15.80;99.90
48912;DHT22;34722;52.108;5.044;2022-09-09T21:56:05;15.80;99.90
48912;DHT22;34722;52.108;5.044;2022-09-09T21:58:35;15.90;99.90
48912;DHT22;34722;52.108;5.044;2022-09-09T22:01:14;15.90;99.90
48912;DHT22;34722;52.108;5.044;2022-09-09T22:03:46;15.80;99.90
48912;DHT22;34722;52.108;5.044;2022-09-09T22:06:14;15.80;99.90
48912;DHT22;34722;52.108;5.044;2022-09-09T22:08:41;15.80;99.90
48912;DHT22;34722;52.108;5.044;2022-09-09T22:11:19;15.80;99.90
48912;DHT22;34722;52.108;5.044;2022-09-09T22:13:47;15.80;99.90
48912;DHT22;34722;52.108;5.044;2022-09-09T22:16:16;15.80;99.90
48912;DHT22;34722;52.108;5.044;2022-09-09T22:18:42;15.90;99.90
48912;DHT22;34722;52.108;5.044;2022-09-09T22:21:15;15.90;99.90
48912;DHT22;34722;52.108;5.044;2022-09-09T22:23:41;15.90;99.90
48912;DHT22;34722;52.108;5.044;2022-09-09T22:26:07;15.90;99.90
48912;DHT22;34722;52.108;5.044;2022-09-09T22:28:34;15.90;99.90
48912;DHT22;34722;52.108;5.044;2022-09-09T22:31:03;15.90;99.90
48912;DHT22;34722;52.108;5.044;2022-09-09T22:33:29;15.90;99.90
48912;DHT22;34722;52.108;5.044;2022-09-09T22:35:54;15.90;99.90
48912;DHT22;34722;52.108;5.044;2022-09-09T22:38:21;16.00;99.90
48912;DHT22;34722;52.108;5.044;2022-09-09T22:40:47;16.00;99.90
48912;DHT22;34722;52.108;5.044;2022-09-09T22:43:19;15.90;99.90
48912;DHT22;34722;52.108;5.044;2022-09-09T22:45:46;15.90;99.90
48912;DHT22;34722;52.108;5.044;2022-09-09T22:48:13;15.90;99.90
48912;DHT22;34722;52.108;5.044;2022-09-09T22:51:08;15.90;99.90
48912;DHT22;34722;52.108;5.044;2022-09-09T22:53:50;15.90;99.90
48912;DHT22;34722;52.108;5.044;2022-09-09T22:56:17;15.90;99.90
48912;DHT22;34722;52.108;5.044;2022-09-09T22:58:44;15.90;99.90
48912;DHT22;34722;52.108;5.044;2022-09-09T23:01:13;15.90;99.90
48912;DHT22;34722;52.108;5.044;2022-09-09T23:03:40;15.90;99.90
48912;DHT22;34722;52.108;5.044;2022-09-09T23:06:09;16.00;99.90
48912;DHT22;34722;52.108;5.044;2022-09-09T23:08:36;16.00;99.90
48912;DHT22;34722;52.108;5.044;2022-09-09T23:11:09;16.00;99.90
48912;DHT22;34722;52.108;5.044;2022-09-09T23:13:37;16.00;99.90
48912;DHT22;34722;52.108;5.044;2022-09-09T23:16:11;16.00;99.90
48912;DHT22;34722;52.108;5.044;2022-09-09T23:18:37;16.00;99.90
48912;DHT22;34722;52.108;5.044;2022-09-09T23:21:07;16.00;99.90
48912;DHT22;34722;52.108;5.044;2022-09-09T23:23:33;16.00;99.90
48912;DHT22;34722;52.108;5.044;2022-09-09T23:26:07;16.00;99.90
48912;DHT22;34722;52.108;5.044;2022-09-09T23:28:36;16.00;99.90
48912;DHT22;34722;52.108;5.044;2022-09-09T23:31:09;16.00;99.90
48912;DHT22;34722;52.108;5.044;2022-09-09T23:33:36;16.00;99.90
48912;DHT22;34722;52.108;5.044;2022-09-09T23:36:04;16.00;99.90
48912;DHT22;34722;52.108;5.044;2022-09-09T23:38:37;16.00;99.90
48912;DHT22;34722;52.108;5.044;2022-09-09T23:41:06;16.00;99.90
48912;DHT22;34722;52.108;5.044;2022-09-09T23:43:33;16.00;99.90
48912;DHT22;34722;52.108;5.044;2022-09-09T23:46:06;16.00;99.90
48912;DHT22;34722;52.108;5.044;2022-09-09T23:48:33;15.90;99.90
48912;DHT22;34722;52.108;5.044;2022-09-09T23:51:02;15.90;99.90
48912;DHT22;34722;52.108;5.044;2022-09-09T23:53:28;15.90;99.90
48912;DHT22;34722;52.108;5.044;2022-09-09T23:55:54;15.90;99.90
48912;DHT22;34722;52.108;5.044;2022-09-09T23:58:20;15.90;99.90
